Time,TemperatureF,DewpointF,PressureIn,WindDirection,WindDirectionDegrees,WindSpeedMPH,WindSpeedGustMPH,Humidity,HourlyPrecipIn,Conditions,Clouds,dailyrainin,SoftwareType,DateUTC
2013-05-15 00:00:00,40.6,28.6,29.77,ESE,111,2.3,2.3,62,0.00,CLR,,0.00,WeatherDisplay:10.37,2013-05-15 04:00:00,
2013-05-15 00:01:00,40.5,28.9,29.77,ESE,111,2.3,2.3,63,0.00,CLR,,0.00,WeatherDisplay:10.37,2013-05-15 04:01:00,
2013-05-15 00:02:00,40.3,28.7,29.77,ESE,111,2.3,2.3,63,0.00,CLR,,0.00,WeatherDisplay:10.37,2013-05-15 04:02:00,
2013-05-15 00:03:00,40.2,28.6,29.77,ESE,111,2.3,0.0,63,0.00,CLR,,0.00,WeatherDisplay:10.37,2013-05-15 04:03:00,
2013-05-15 00:04:00,40.3,28.7,29.77,ESE,111,2.0,2.0,63,0.00,CLR,,0.00,WeatherDisplay:10.37,2013-05-15 04:04:00,
2013-05-15 00:06:00,40.3,28.7,29.77,ESE,110,3.0,3.0,63,0.00,CLR,,0.00,WeatherDisplay:10.37,2013-05-15 04:06:00,
2013-05-15 00:11:00,39.8,29.0,29.77,ESE,108,4.0,4.0,65,0.00,CLR,,0.00,WeatherDisplay:10.37,2013-05-15 04:11:00,
2013-05-15 00:16:00,40.1,28.9,29.77,ENE,76,3.5,3.5,64,0.00,CLR,,0.00,WeatherDisplay:10.37,2013-05-15 04:16:00,
2013-05-15 00:21:00,39.5,28.7,29.77,ENE,76,2.3,2.3,65,0.00,CLR,,0.00,WeatherDisplay:10.37,2013-05-15 04:21:00,
2013-05-15 00:26:00,40.0,28.8,29.77,ENE,76,2.3,2.3,64,0.00,CLR,,0.00,WeatherDisplay:10.37,2013-05-15 04:26:00,
2013-05-15 00:31:00,40.3,28.7,29.77,ENE,76,1.2,1.2,63,0.00,CLR,,0.00,WeatherDisplay:10.37,2013-05-15 04:31:00,
2013-05-15 00:36:00,39.8,29.4,29.76,ENE,76,0.0,0.0,66,0.00,CLR,,0.00,WeatherDisplay:10.37,2013-05-15 04:36:00,
2013-05-15 00:42:00,39.9,29.8,29.76,ENE,76,1.0,1.0,67,0.00,CLR,,0.00,WeatherDisplay:10.37,2013-05-15 04:42:00,
2013-05-15 00:47:00,39.5,30.2,29.76,ENE,76,2.3,2.3,69,0.00,CLR,,0.00,WeatherDisplay:10.37,2013-05-15 04:47:00,
2013-05-15 00:52:00,39.2,30.2,29.76,ENE,76,2.3,2.3,70,0.00,CLR,,0.00,WeatherDisplay:10.37,2013-05-15 04:52:00,
2013-05-15 00:57:00,39.1,30.1,29.76,ENE,76,0.0,0.0,70,0.00,CLR,,0.00,WeatherDisplay:10.37,2013-05-15 04:57:00,
2013-05-15 01:02:00,38.7,30.4,29.76,ENE,76,2.3,2.3,72,0.00,CLR,,0.00,WeatherDisplay:10.37,2013-05-15 05:02:00,
2013-05-15 01:07:00,38.3,30.1,29.75,ENE,76,1.0,1.0,72,0.00,CLR,,0.00,WeatherDisplay:10.37,2013-05-15 05:07:00,
2013-05-15 01:12:00,38.3,30.1,29.75,ENE,76,1.2,1.2,72,0.00,CLR,,0.00,WeatherDisplay:10.37,2013-05-15 05:12:00,
2013-05-15 01:17:00,38.3,30.1,29.75,ENE,76,2.3,2.3,72,0.00,CLR,,0.00,WeatherDisplay:10.37,2013-05-15 05:17:00,
2013-05-15 01:22:00,38.5,30.3,29.75,ENE,76,2.3,2.3,72,0.00,CLR,,0.00,WeatherDisplay:10.37,2013-05-15 05:22:00,
2013-05-15 01:27:00,38.5,29.9,29.75,East,83,6.0,6.0,71,0.00,CLR,,0.00,WeatherDisplay:10.37,2013-05-15 05:27:00,
2013-05-15 01:32:00,38.4,29.8,29.75,ENE,63,9.2,9.2,71,0.00,CLR,,0.00,WeatherDisplay:10.37,2013-05-15 05:32:00,
2013-05-15 01:37:00,38.0,29.8,29.75,ENE,64,3.5,3.5,72,0.00,CLR,,0.00,WeatherDisplay:10.37,2013-05-15 05:37:00,
2013-05-15 01:42:00,38.1,29.9,29.75,ENE,67,5.0,5.0,72,0.00,CLR,,0.00,WeatherDisplay:10.37,2013-05-15 05:42:00,
2013-05-15 01:47:00,38.4,29.8,29.75,ENE,70,5.0,5.0,71,0.00,CLR,,0.00,WeatherDisplay:10.37,2013-05-15 05:47:00,
2013-05-15 01:52:00,38.5,29.6,29.75,ENE,71,3.5,3.5,70,0.00,CLR,,0.00,WeatherDisplay:10.37,2013-05-15 05:52:00,
2013-05-15 01:57:00,38.4,29.5,29.75,ENE,74,4.6,4.6,70,0.00,CLR,,0.00,WeatherDisplay:10.37,2013-05-15 05:57:00,
2013-05-15 02:02:00,38.2,29.6,29.75,ENE,74,4.0,4.0,71,0.00,CLR,,0.00,WeatherDisplay:10.37,2013-05-15 06:02:00,
2013-05-15 02:07:00,38.1,29.5,29.75,ENE,75,5.0,5.0,71,0.00,CLR,,0.00,WeatherDisplay:10.37,2013-05-15 06:07:00,
2013-05-15 02:12:00,37.9,29.3,29.75,ENE,72,5.0,5.0,71,0.00,CLR,,0.00,WeatherDisplay:10.37,2013-05-15 06:12:00,
2013-05-15 02:17:00,37.9,29.3,29.75,East,80,6.0,6.0,71,0.00,CLR,,0.00,WeatherDisplay:10.37,2013-05-15 06:17:00,
2013-05-15 02:22:00,37.8,29.2,29.74,East,85,6.9,6.9,71,0.00,CLR,,0.00,WeatherDisplay:10.37,2013-05-15 06:22:00,
2013-05-15 02:27:00,37.7,29.5,29.74,East,80,6.9,6.9,72,0.00,CLR,,0.00,WeatherDisplay:10.37,2013-05-15 06:27:00,
2013-05-15 02:32:00,37.7,29.1,29.74,ENE,72,3.5,3.5,71,0.00,CLR,,0.00,WeatherDisplay:10.37,2013-05-15 06:32:00,
2013-05-15 02:37:00,37.7,29.1,29.73,ENE,71,4.6,4.6,71,0.00,CLR,,0.00,WeatherDisplay:10.37,2013-05-15 06:37:00,
2013-05-15 02:42:00,37.8,29.2,29.74,ENE,68,5.0,5.0,71,0.00,CLR,,0.00,WeatherDisplay:10.37,2013-05-15 06:42:00,
2013-05-15 02:47:00,37.9,29.0,29.74,ENE,67,5.0,5.0,70,0.00,CLR,,0.00,WeatherDisplay:10.37,2013-05-15 06:47:00,
2013-05-15 02:52:00,38.0,29.1,29.74,ENE,72,6.9,6.9,70,0.00,CLR,,0.00,WeatherDisplay:10.37,2013-05-15 06:52:00,
2013-05-15 02:57:00,38.1,29.2,29.74,ENE,63,9.2,9.2,70,0.00,CLR,,0.00,WeatherDisplay:10.37,2013-05-15 06:57:00,
2013-05-15 03:02:00,38.4,29.5,29.74,ENE,69,9.2,9.2,70,0.00,CLR,,0.00,WeatherDisplay:10.37,2013-05-15 07:02:00,
2013-05-15 03:07:00,38.5,29.6,29.73,East,80,9.2,9.2,70,0.00,CLR,,0.00,WeatherDisplay:10.37,2013-05-15 07:07:00,
2013-05-15 03:12:00,38.5,29.6,29.73,ENE,67,7.0,7.0,70,0.00,CLR,,0.00,WeatherDisplay:10.37,2013-05-15 07:12:00,
2013-05-15 03:17:00,38.4,29.8,29.73,East,79,8.1,8.1,71,0.00,CLR,,0.00,WeatherDisplay:10.37,2013-05-15 07:17:00,
2013-05-15 03:22:00,38.2,29.6,29.73,East,96,7.0,7.0,71,0.00,CLR,,0.00,WeatherDisplay:10.37,2013-05-15 07:22:00,
2013-05-15 03:27:00,38.0,29.4,29.73,East,90,7.0,7.0,71,0.00,CLR,,0.00,WeatherDisplay:10.37,2013-05-15 07:27:00,
2013-05-15 03:32:00,38.0,29.4,29.72,ENE,71,8.1,8.1,71,0.00,CLR,,0.00,WeatherDisplay:10.37,2013-05-15 07:32:00,
2013-05-15 03:37:00,38.3,29.7,29.72,ENE,74,9.2,9.2,71,0.00,CLR,,0.00,WeatherDisplay:10.37,2013-05-15 07:37:00,
2013-05-15 03:42:00,38.5,29.6,29.72,ENE,66,10.4,10.4,70,0.00,CLR,,0.00,WeatherDisplay:10.37,2013-05-15 07:42:00,
2013-05-15 03:47:00,38.6,30.0,29.72,ENE,69,7.0,7.0,71,0.00,CLR,,0.00,WeatherDisplay:10.37,2013-05-15 07:47:00,
2013-05-15 03:52:00,38.6,30.0,29.72,ENE,78,6.9,6.9,71,0.00,CLR,,0.00,WeatherDisplay:10.37,2013-05-15 07:52:00,
2013-05-15 03:57:00,38.7,29.8,29.72,East,82,10.0,10.0,70,0.00,CLR,,0.00,WeatherDisplay:10.37,2013-05-15 07:57:00,
2013-05-15 04:02:00,39.0,30.0,29.72,East,80,9.0,9.0,70,0.00,CLR,,0.00,WeatherDisplay:10.37,2013-05-15 08:02:00,
2013-05-15 04:07:00,39.2,29.9,29.72,ENE,75,14.0,14.0,69,0.00,CLR,,0.00,WeatherDisplay:10.37,2013-05-15 08:07:00,
2013-05-15 04:12:00,39.3,30.0,29.72,East,81,11.5,11.5,69,0.00,CLR,,0.00,WeatherDisplay:10.37,2013-05-15 08:12:00,
2013-05-15 04:17:00,39.5,29.8,29.72,East,86,11.5,11.5,68,0.00,CLR,,0.00,WeatherDisplay:10.37,2013-05-15 08:17:00,
2013-05-15 04:22:00,39.6,29.5,29.71,ENE,66,11.5,11.5,67,0.00,CLR,,0.00,WeatherDisplay:10.37,2013-05-15 08:22:00,
2013-05-15 04:27:00,39.7,30.0,29.71,ENE,74,10.4,10.4,68,0.00,CLR,,0.00,WeatherDisplay:10.37,2013-05-15 08:27:00,
2013-05-15 04:32:00,39.8,29.7,29.71,ENE,74,15.0,15.0,67,0.00,CLR,,0.00,WeatherDisplay:10.37,2013-05-15 08:32:00,
2013-05-15 04:37:00,39.7,29.6,29.70,ENE,71,11.5,11.5,67,0.00,CLR,,0.00,WeatherDisplay:10.37,2013-05-15 08:37:00,
2013-05-15 04:42:00,39.6,29.5,29.70,ENE,69,12.7,12.7,67,0.00,CLR,,0.00,WeatherDisplay:10.37,2013-05-15 08:42:00,
2013-05-15 04:47:00,39.6,29.5,29.70,ENE,58,10.4,10.4,67,0.00,CLR,,0.00,WeatherDisplay:10.37,2013-05-15 08:47:00,
2013-05-15 04:52:00,39.7,29.6,29.70,ENE,64,10.4,10.4,67,0.00,CLR,,0.00,WeatherDisplay:10.37,2013-05-15 08:52:00,
2013-05-15 04:57:00,39.8,29.7,29.70,ENE,71,9.2,9.2,67,0.00,CLR,,0.00,WeatherDisplay:10.37,2013-05-15 08:57:00,
2013-05-15 05:02:00,40.0,29.9,29.70,ENE,78,9.2,9.2,67,0.00,CLR,,0.00,WeatherDisplay:10.37,2013-05-15 09:02:00,
2013-05-15 05:07:00,40.1,29.6,29.70,ENE,65,11.5,11.5,66,0.00,CLR,,0.00,WeatherDisplay:10.37,2013-05-15 09:07:00,
2013-05-15 05:12:00,40.2,30.1,29.70,ENE,67,11.5,11.5,67,0.00,CLR,,0.00,WeatherDisplay:10.37,2013-05-15 09:12:00,
2013-05-15 05:17:00,40.2,29.7,29.70,ENE,77,10.4,10.4,66,0.00,CLR,,0.00,WeatherDisplay:10.37,2013-05-15 09:17:00,
2013-05-15 05:22:00,40.3,29.8,29.70,ENE,77,12.0,12.0,66,0.00,CLR,,0.00,WeatherDisplay:10.37,2013-05-15 09:22:00,
2013-05-15 05:27:00,40.3,29.8,29.69,ENE,72,9.2,9.2,66,0.00,CLR,,0.00,WeatherDisplay:10.37,2013-05-15 09:27:00,
2013-05-15 05:32:00,40.3,29.8,29.70,ENE,76,10.4,10.4,66,0.00,CLR,,0.00,WeatherDisplay:10.37,2013-05-15 09:32:00,
2013-05-15 05:37:00,40.4,29.9,29.70,ENE,63,9.2,9.2,66,0.00,CLR,,0.00,WeatherDisplay:10.37,2013-05-15 09:37:00,
2013-05-15 05:42:00,40.5,30.4,29.70,ENE,78,8.1,8.1,67,0.00,CLR,,0.00,WeatherDisplay:10.37,2013-05-15 09:42:00,
2013-05-15 05:47:00,40.6,30.1,29.69,ENE,65,9.2,9.2,66,0.00,CLR,,0.00,WeatherDisplay:10.37,2013-05-15 09:47:00,
2013-05-15 05:52:00,40.6,30.5,29.69,ENE,66,10.0,10.0,67,0.00,CLR,,0.00,WeatherDisplay:10.37,2013-05-15 09:52:00,
2013-05-15 05:57:00,40.7,30.2,29.69,ENE,73,8.1,8.1,66,0.00,CLR,,0.00,WeatherDisplay:10.37,2013-05-15 09:57:00,
2013-05-15 06:02:00,40.7,30.2,29.68,ENE,60,9.2,9.2,66,0.00,CLR,,0.00,WeatherDisplay:10.37,2013-05-15 10:02:00,
2013-05-15 06:07:00,40.7,30.2,29.68,ENE,64,11.5,11.5,66,0.00,CLR,,0.00,WeatherDisplay:10.37,2013-05-15 10:07:00,
2013-05-15 06:12:00,40.7,30.6,29.68,ENE,72,7.0,7.0,67,0.00,CLR,,0.00,WeatherDisplay:10.37,2013-05-15 10:12:00,
2013-05-15 06:17:00,40.7,30.6,29.68,ENE,57,9.2,9.2,67,0.00,CLR,,0.00,WeatherDisplay:10.37,2013-05-15 10:17:00,
2013-05-15 06:22:00,40.7,30.6,29.68,NE,53,9.2,9.2,67,0.00,CLR,,0.00,WeatherDisplay:10.37,2013-05-15 10:22:00,
2013-05-15 06:27:00,40.8,30.7,29.67,East,98,10.4,10.4,67,0.00,CLR,,0.00,WeatherDisplay:10.37,2013-05-15 10:27:00,
2013-05-15 06:32:00,41.0,30.5,29.67,East,85,12.0,12.0,66,0.00,CLR,,0.00,WeatherDisplay:10.37,2013-05-15 10:32:00,
2013-05-15 06:37:00,41.2,30.7,29.66,East,86,8.1,8.1,66,0.00,CLR,,0.00,WeatherDisplay:10.37,2013-05-15 10:37:00,
2013-05-15 06:42:00,41.3,30.8,29.66,NNE,28,12.7,12.7,66,0.00,CLR,,0.00,WeatherDisplay:10.37,2013-05-15 10:42:00,
2013-05-15 06:47:00,41.4,30.9,29.66,East,87,12.7,12.7,66,0.00,CLR,,0.00,WeatherDisplay:10.37,2013-05-15 10:47:00,
2013-05-15 06:52:00,41.7,30.8,29.66,East,81,13.8,13.8,65,0.00,CLR,,0.00,WeatherDisplay:10.37,2013-05-15 10:52:00,
2013-05-15 06:57:00,41.9,30.6,29.67,ENE,69,13.8,13.8,64,0.00,CLR,,0.00,WeatherDisplay:10.37,2013-05-15 10:57:00,
2013-05-15 07:02:00,42.0,30.7,29.66,ENE,71,12.7,12.7,64,0.00,CLR,,0.00,WeatherDisplay:10.37,2013-05-15 11:02:00,
2013-05-15 07:08:00,42.0,30.7,29.65,East,98,13.8,13.8,64,0.00,CLR,,0.00,WeatherDisplay:10.37,2013-05-15 11:08:00,
2013-05-15 07:13:00,42.1,31.2,29.65,ENE,74,16.1,16.1,65,0.00,CLR,,0.00,WeatherDisplay:10.37,2013-05-15 11:13:00,
2013-05-15 07:18:00,42.3,31.0,29.66,East,91,14.0,14.0,64,0.00,CLR,,0.00,WeatherDisplay:10.37,2013-05-15 11:18:00,
2013-05-15 07:23:00,42.5,31.2,29.65,ENE,71,12.0,12.0,64,0.00,CLR,,0.00,WeatherDisplay:10.37,2013-05-15 11:23:00,
2013-05-15 07:28:00,42.7,31.4,29.65,ENE,59,13.0,13.0,64,0.00,CLR,,0.00,WeatherDisplay:10.37,2013-05-15 11:28:00,
2013-05-15 07:33:00,42.8,31.5,29.65,ENE,69,15.0,15.0,64,0.00,CLR,,0.00,WeatherDisplay:10.37,2013-05-15 11:33:00,
2013-05-15 07:38:00,43.1,31.7,29.65,ENE,74,13.0,13.0,64,0.00,CLR,,0.00,WeatherDisplay:10.37,2013-05-15 11:38:00,
2013-05-15 07:43:00,43.3,31.9,29.64,East,88,11.0,11.0,64,0.00,CLR,,0.00,WeatherDisplay:10.37,2013-05-15 11:43:00,
2013-05-15 07:48:00,44.0,32.6,29.64,East,88,13.0,13.0,64,0.00,CLR,,0.00,WeatherDisplay:10.37,2013-05-15 11:48:00,
2013-05-15 07:53:00,44.9,32.7,29.63,East,83,12.7,12.7,62,0.00,CLR,,0.00,WeatherDisplay:10.37,2013-05-15 11:53:00,
2013-05-15 07:58:00,45.2,32.9,29.64,East,84,9.2,9.2,62,0.00,CLR,,0.00,WeatherDisplay:10.37,2013-05-15 11:58:00,
2013-05-15 08:03:00,45.4,33.1,29.64,ENE,59,15.0,15.0,62,0.00,CLR,,0.00,WeatherDisplay:10.37,2013-05-15 12:03:00,
2013-05-15 08:09:00,45.2,32.5,29.63,NE,44,10.4,10.4,61,0.00,CLR,,0.00,WeatherDisplay:10.37,2013-05-15 12:09:00,
2013-05-15 08:14:00,45.3,33.0,29.63,ENE,69,9.2,9.2,62,0.00,CLR,,0.00,WeatherDisplay:10.37,2013-05-15 12:14:00,
2013-05-15 08:19:00,45.5,33.2,29.62,ENE,63,9.2,9.2,62,0.00,CLR,,0.00,WeatherDisplay:10.37,2013-05-15 12:19:00,
2013-05-15 08:24:00,45.6,33.3,29.62,ENE,74,10.4,10.4,62,0.00,CLR,,0.00,WeatherDisplay:10.37,2013-05-15 12:24:00,
2013-05-15 08:29:00,45.6,32.9,29.62,ENE,70,11.5,11.5,61,0.00,CLR,,0.00,WeatherDisplay:10.37,2013-05-15 12:29:00,
2013-05-15 08:34:00,45.6,33.3,29.61,ESE,111,11.5,11.5,62,0.00,CLR,,0.00,WeatherDisplay:10.37,2013-05-15 12:34:00,
2013-05-15 08:39:00,45.6,33.3,29.61,East,95,10.0,10.0,62,0.00,CLR,,0.00,WeatherDisplay:10.37,2013-05-15 12:39:00,
2013-05-15 08:44:00,45.6,32.9,29.62,ENE,67,12.7,12.7,61,0.00,CLR,,0.00,WeatherDisplay:10.37,2013-05-15 12:44:00,
2013-05-15 08:49:00,45.6,33.3,29.63,ENE,68,10.4,10.4,62,0.00,CLR,,0.00,WeatherDisplay:10.37,2013-05-15 12:49:00,
2013-05-15 08:54:00,45.7,34.2,29.63,ENE,63,11.5,11.5,64,0.00,CLR,,0.00,WeatherDisplay:10.37,2013-05-15 12:54:00,
2013-05-15 08:59:00,45.6,35.3,29.63,ENE,66,9.2,9.2,67,0.00,CLR,,0.00,WeatherDisplay:10.37,2013-05-15 12:59:00,
2013-05-15 09:04:00,45.4,35.8,29.63,ENE,63,9.0,9.0,69,0.00,CLR,,0.00,WeatherDisplay:10.37,2013-05-15 13:04:00,
2013-05-15 09:10:00,44.9,36.4,29.62,ENE,64,7.0,7.0,72,0.00,CLR,,0.00,WeatherDisplay:10.37,2013-05-15 13:10:00,
2013-05-15 09:15:00,44.6,36.5,29.62,ENE,71,5.0,5.0,73,0.01,RA,,0.01,WeatherDisplay:10.37,2013-05-15 13:15:00,
2013-05-15 09:20:00,44.6,36.8,29.62,ENE,61,8.1,8.1,74,0.01,RA,,0.01,WeatherDisplay:10.37,2013-05-15 13:20:00,
2013-05-15 09:25:00,44.7,36.9,29.62,ENE,65,8.1,8.1,74,0.01,CLR,,0.01,WeatherDisplay:10.37,2013-05-15 13:25:00,
2013-05-15 09:31:00,44.7,37.3,29.63,East,80,6.0,6.0,75,0.01,CLR,,0.01,WeatherDisplay:10.37,2013-05-15 13:31:00,
2013-05-15 09:36:00,44.8,37.4,29.62,ENE,63,7.0,7.0,75,0.01,CLR,,0.01,WeatherDisplay:10.37,2013-05-15 13:36:00,
2013-05-15 09:41:00,45.0,37.6,29.60,ENE,68,10.0,10.0,75,0.01,CLR,,0.01,WeatherDisplay:10.37,2013-05-15 13:41:00,
2013-05-15 09:48:00,45.2,37.7,29.62,ENE,57,5.8,5.8,75,0.01,CLR,,0.01,WeatherDisplay:10.37,2013-05-15 13:48:00,
2013-05-15 09:53:00,45.4,38.3,29.62,ENE,63,8.1,8.1,76,0.01,CLR,,0.01,WeatherDisplay:10.37,2013-05-15 13:53:00,
2013-05-15 09:58:00,45.5,38.4,29.61,East,80,7.0,7.0,76,0.01,CLR,,0.01,WeatherDisplay:10.37,2013-05-15 13:58:00,
2013-05-15 10:03:00,45.5,38.0,29.60,ENE,65,12.7,12.7,75,0.01,CLR,,0.01,WeatherDisplay:10.37,2013-05-15 14:03:00,
2013-05-15 10:08:00,45.7,38.6,29.59,East,93,12.7,12.7,76,0.01,CLR,,0.01,WeatherDisplay:10.37,2013-05-15 14:08:00,
2013-05-15 10:13:00,45.9,39.1,29.57,ENE,60,15.0,15.0,77,0.00,CLR,,0.01,WeatherDisplay:10.37,2013-05-15 14:13:00,
2013-05-15 10:18:00,46.2,39.7,29.57,East,100,12.7,12.7,78,0.00,CLR,,0.01,WeatherDisplay:10.37,2013-05-15 14:18:00,
2013-05-15 10:23:00,46.6,40.4,29.57,ESE,105,10.4,10.4,79,0.00,CLR,,0.01,WeatherDisplay:10.37,2013-05-15 14:23:00,
2013-05-15 10:29:00,46.8,40.3,29.57,ENE,77,11.5,11.5,78,0.00,CLR,,0.01,WeatherDisplay:10.37,2013-05-15 14:29:00,
2013-05-15 10:34:00,46.8,40.3,29.57,ENE,64,6.9,6.9,78,0.00,CLR,,0.01,WeatherDisplay:10.37,2013-05-15 14:34:00,
2013-05-15 10:39:00,46.8,40.3,29.57,ENE,61,9.2,9.2,78,0.00,CLR,,0.01,WeatherDisplay:10.37,2013-05-15 14:39:00,
2013-05-15 10:44:00,46.8,40.3,29.56,NE,56,11.5,11.5,78,0.00,CLR,,0.01,WeatherDisplay:10.37,2013-05-15 14:44:00,
2013-05-15 10:50:00,46.8,40.6,29.56,ENE,67,11.5,11.5,79,0.00,CLR,,0.01,WeatherDisplay:10.37,2013-05-15 14:50:00,
2013-05-15 10:55:00,47.0,40.5,29.55,ENE,74,12.7,12.7,78,0.00,CLR,,0.01,WeatherDisplay:10.37,2013-05-15 14:55:00,
2013-05-15 11:00:00,46.9,40.4,29.53,East,80,15.0,15.0,78,0.00,CLR,,0.01,WeatherDisplay:10.37,2013-05-15 15:00:00,
2013-05-15 11:06:00,46.8,40.3,29.53,ENE,68,15.0,15.0,78,0.00,CLR,,0.01,WeatherDisplay:10.37,2013-05-15 15:06:00,
2013-05-15 11:10:00,46.7,40.5,29.52,East,91,11.5,11.5,79,0.00,CLR,,0.01,WeatherDisplay:10.37,2013-05-15 15:10:00,
2013-05-15 11:15:00,46.8,41.0,29.51,East,89,9.2,9.2,80,0.01,RA,,0.02,WeatherDisplay:10.37,2013-05-15 15:15:00,
2013-05-15 11:21:00,47.2,41.7,29.51,ENE,70,9.2,9.2,81,0.01,RA,,0.02,WeatherDisplay:10.37,2013-05-15 15:21:00,
2013-05-15 11:26:00,47.8,42.6,29.50,East,81,13.0,13.0,82,0.01,CLR,,0.02,WeatherDisplay:10.37,2013-05-15 15:26:00,
2013-05-15 11:31:00,48.5,42.9,29.50,East,81,14.0,14.0,81,0.01,CLR,,0.02,WeatherDisplay:10.37,2013-05-15 15:31:00,
2013-05-15 11:36:00,48.5,42.6,29.50,East,83,12.7,12.7,80,0.01,CLR,,0.02,WeatherDisplay:10.37,2013-05-15 15:36:00,
2013-05-15 11:41:00,48.3,42.7,29.50,NE,51,6.9,6.9,81,0.01,CLR,,0.02,WeatherDisplay:10.37,2013-05-15 15:41:00,
2013-05-15 11:46:00,48.0,42.8,29.49,East,86,12.7,12.7,82,0.01,CLR,,0.02,WeatherDisplay:10.37,2013-05-15 15:46:00,
2013-05-15 11:51:00,48.1,43.5,29.47,East,94,12.7,12.7,84,0.01,CLR,,0.02,WeatherDisplay:10.37,2013-05-15 15:51:00,
2013-05-15 11:56:00,48.7,44.1,29.45,East,100,15.0,15.0,84,0.01,CLR,,0.02,WeatherDisplay:10.37,2013-05-15 15:56:00,
2013-05-15 12:01:00,49.4,45.1,29.47,ESE,109,14.0,14.0,85,0.01,CLR,,0.02,WeatherDisplay:10.37,2013-05-15 16:01:00,
2013-05-15 12:06:00,50.0,45.0,29.56,WNW,294,10.4,10.4,83,0.01,CLR,,0.02,WeatherDisplay:10.37,2013-05-15 16:06:00,
2013-05-15 12:11:00,49.5,44.2,29.51,East,80,7.0,7.0,82,0.01,CLR,,0.02,WeatherDisplay:10.37,2013-05-15 16:11:00,
2013-05-15 12:16:00,50.0,46.0,29.46,ESE,103,13.8,13.8,86,0.00,CLR,,0.02,WeatherDisplay:10.37,2013-05-15 16:16:00,
2013-05-15 12:22:00,51.8,46.8,29.46,ESE,109,11.5,11.5,83,0.00,CLR,,0.02,WeatherDisplay:10.37,2013-05-15 16:22:00,
2013-05-15 12:27:00,52.6,47.6,29.46,ESE,104,14.0,14.0,83,0.00,CLR,,0.02,WeatherDisplay:10.37,2013-05-15 16:27:00,
2013-05-15 12:32:00,53.3,47.3,29.46,East,101,13.8,13.8,80,0.00,CLR,,0.02,WeatherDisplay:10.37,2013-05-15 16:32:00,
2013-05-15 12:37:00,54.3,47.9,29.46,ESE,102,11.5,11.5,79,0.00,CLR,,0.02,WeatherDisplay:10.37,2013-05-15 16:37:00,
2013-05-15 12:42:00,55.5,49.4,29.45,ENE,78,11.5,11.5,80,0.00,CLR,,0.02,WeatherDisplay:10.37,2013-05-15 16:42:00,
2013-05-15 12:48:00,57.1,50.6,29.46,ESE,111,11.5,11.5,79,0.00,CLR,,0.02,WeatherDisplay:10.37,2013-05-15 16:48:00,
2013-05-15 12:53:00,56.9,48.3,29.47,East,99,9.2,9.2,73,0.00,CLR,,0.02,WeatherDisplay:10.37,2013-05-15 16:53:00,
2013-05-15 12:58:00,56.3,47.8,29.46,NE,55,8.1,8.1,73,0.00,CLR,,0.02,WeatherDisplay:10.37,2013-05-15 16:58:00,
2013-05-15 13:04:00,55.9,47.7,29.46,ENE,74,7.0,7.0,74,0.00,CLR,,0.02,WeatherDisplay:10.37,2013-05-15 17:04:00,
2013-05-15 13:09:00,55.5,47.7,29.46,ENE,71,5.8,5.8,75,0.00,CLR,,0.02,WeatherDisplay:10.37,2013-05-15 17:09:00,
2013-05-15 13:15:00,55.6,47.8,29.45,ENE,69,8.1,8.1,75,0.00,CLR,,0.02,WeatherDisplay:10.37,2013-05-15 17:15:00,
2013-05-15 13:20:00,55.7,47.9,29.44,NE,56,12.7,12.7,75,0.00,CLR,,0.02,WeatherDisplay:10.37,2013-05-15 17:20:00,
2013-05-15 13:25:00,56.7,49.2,29.43,ENE,76,11.0,11.0,76,0.00,CLR,,0.02,WeatherDisplay:10.37,2013-05-15 17:25:00,
2013-05-15 13:30:00,56.4,48.2,29.42,ENE,64,12.0,12.0,74,0.00,CLR,,0.02,WeatherDisplay:10.37,2013-05-15 17:30:00,
2013-05-15 13:35:00,57.2,49.3,29.43,East,92,19.0,19.0,75,0.00,CLR,,0.02,WeatherDisplay:10.37,2013-05-15 17:35:00,
2013-05-15 13:40:00,57.8,49.6,29.42,East,85,17.3,17.3,74,0.00,CLR,,0.02,WeatherDisplay:10.37,2013-05-15 17:40:00,
2013-05-15 13:45:00,58.1,49.1,29.41,ENE,62,17.3,17.3,72,0.00,CLR,,0.02,WeatherDisplay:10.37,2013-05-15 17:45:00,
2013-05-15 13:50:00,58.0,49.0,29.40,ENE,59,17.3,17.3,72,0.00,CLR,,0.02,WeatherDisplay:10.37,2013-05-15 17:50:00,
2013-05-15 13:55:00,58.3,49.3,29.39,East,96,15.0,15.0,72,0.00,CLR,,0.02,WeatherDisplay:10.37,2013-05-15 17:55:00,
2013-05-15 14:00:00,58.2,49.2,29.39,ENE,72,13.8,13.8,72,0.00,CLR,,0.02,WeatherDisplay:10.37,2013-05-15 18:00:00,
2013-05-15 14:05:00,57.7,48.7,29.37,East,81,17.3,17.3,72,0.00,CLR,,0.02,WeatherDisplay:10.37,2013-05-15 18:05:00,
2013-05-15 14:11:00,57.0,48.4,29.38,East,89,18.4,18.4,73,0.00,CLR,,0.02,WeatherDisplay:10.37,2013-05-15 18:11:00,
2013-05-15 14:16:00,57.1,48.9,29.38,ENE,69,9.2,9.2,74,0.00,CLR,,0.02,WeatherDisplay:10.37,2013-05-15 18:16:00,
2013-05-15 14:21:00,57.9,49.7,29.39,ESE,105,13.8,13.8,74,0.00,CLR,,0.02,WeatherDisplay:10.37,2013-05-15 18:21:00,
2013-05-15 14:26:00,58.0,49.0,29.38,East,92,13.8,13.8,72,0.00,CLR,,0.02,WeatherDisplay:10.37,2013-05-15 18:26:00,
2013-05-15 14:31:00,58.1,49.1,29.38,East,86,12.7,12.7,72,0.00,CLR,,0.02,WeatherDisplay:10.37,2013-05-15 18:31:00,
2013-05-15 14:36:00,59.0,50.0,29.39,ENE,71,12.7,12.7,72,0.00,CLR,,0.02,WeatherDisplay:10.37,2013-05-15 18:36:00,
2013-05-15 14:41:00,59.0,49.6,29.39,East,79,8.1,8.1,71,0.00,CLR,,0.02,WeatherDisplay:10.37,2013-05-15 18:41:00,
2013-05-15 14:46:00,58.9,49.9,29.38,ENE,62,9.0,9.0,72,0.00,CLR,,0.02,WeatherDisplay:10.37,2013-05-15 18:46:00,
2013-05-15 14:51:00,58.8,49.4,29.38,East,93,11.5,11.5,71,0.00,CLR,,0.02,WeatherDisplay:10.37,2013-05-15 18:51:00,
2013-05-15 14:56:00,58.8,50.2,29.37,ENE,71,11.5,11.5,73,0.00,CLR,,0.02,WeatherDisplay:10.37,2013-05-15 18:56:00,
2013-05-15 15:01:00,59.0,50.4,29.37,ENE,57,8.1,8.1,73,0.00,CLR,,0.02,WeatherDisplay:10.37,2013-05-15 19:01:00,
2013-05-15 15:06:00,59.9,50.8,29.37,ENE,65,9.2,9.2,72,0.00,CLR,,0.02,WeatherDisplay:10.37,2013-05-15 19:06:00,
2013-05-15 15:11:00,60.2,51.1,29.36,ENE,61,9.2,9.2,72,0.00,CLR,,0.02,WeatherDisplay:10.37,2013-05-15 19:11:00,
2013-05-15 15:16:00,60.7,51.2,29.36,ENE,63,8.1,8.1,71,0.00,CLR,,0.02,WeatherDisplay:10.37,2013-05-15 19:16:00,
2013-05-15 15:22:00,60.6,51.1,29.35,ENE,60,11.5,11.5,71,0.00,CLR,,0.02,WeatherDisplay:10.37,2013-05-15 19:22:00,
2013-05-15 15:27:00,60.6,50.8,29.36,ENE,57,9.2,9.2,70,0.00,CLR,,0.02,WeatherDisplay:10.37,2013-05-15 19:27:00,
2013-05-15 15:32:00,60.7,51.2,29.36,ENE,75,8.1,8.1,71,0.00,CLR,,0.02,WeatherDisplay:10.37,2013-05-15 19:32:00,
2013-05-15 15:37:00,60.7,51.2,29.35,NE,56,8.1,8.1,71,0.00,CLR,,0.02,WeatherDisplay:10.37,2013-05-15 19:37:00,
2013-05-15 15:42:00,60.3,50.9,29.35,ENE,69,11.5,11.5,71,0.00,CLR,,0.02,WeatherDisplay:10.37,2013-05-15 19:42:00,
2013-05-15 15:47:00,60.2,51.1,29.35,NE,54,13.8,13.8,72,0.00,CLR,,0.02,WeatherDisplay:10.37,2013-05-15 19:47:00,
2013-05-15 15:52:00,60.5,51.0,29.34,East,85,9.2,9.2,71,0.00,CLR,,0.02,WeatherDisplay:10.37,2013-05-15 19:52:00,
2013-05-15 15:57:00,61.4,52.3,29.33,ENE,76,13.0,13.0,72,0.00,CLR,,0.02,WeatherDisplay:10.37,2013-05-15 19:57:00,
2013-05-15 16:02:00,62.2,52.7,29.32,East,94,11.0,11.0,71,0.00,CLR,,0.02,WeatherDisplay:10.37,2013-05-15 20:02:00,
2013-05-15 16:07:00,62.5,52.2,29.32,ENE,67,13.0,13.0,69,0.00,CLR,,0.02,WeatherDisplay:10.37,2013-05-15 20:07:00,
2013-05-15 16:12:00,62.9,52.6,29.31,NE,48,12.7,12.7,69,0.00,CLR,,0.02,WeatherDisplay:10.37,2013-05-15 20:12:00,
2013-05-15 16:17:00,63.4,53.4,29.31,East,96,11.5,11.5,70,0.00,CLR,,0.02,WeatherDisplay:10.37,2013-05-15 20:17:00,
2013-05-15 16:22:00,64.0,53.2,29.31,NE,55,13.0,13.0,68,0.00,CLR,,0.02,WeatherDisplay:10.37,2013-05-15 20:22:00,
2013-05-15 16:27:00,64.1,53.3,29.32,ENE,78,9.0,9.0,68,0.00,CLR,,0.02,WeatherDisplay:10.37,2013-05-15 20:27:00,
2013-05-15 16:32:00,63.9,53.1,29.32,ESE,111,10.4,10.4,68,0.00,CLR,,0.02,WeatherDisplay:10.37,2013-05-15 20:32:00,
2013-05-15 16:37:00,63.1,52.8,29.32,ENE,78,7.0,7.0,69,0.00,CLR,,0.02,WeatherDisplay:10.37,2013-05-15 20:37:00,
2013-05-15 16:43:00,62.7,53.2,29.32,ENE,57,7.0,7.0,71,0.00,CLR,,0.02,WeatherDisplay:10.37,2013-05-15 20:43:00,
2013-05-15 16:48:00,63.0,53.4,29.32,ENE,63,7.0,7.0,71,0.00,CLR,,0.02,WeatherDisplay:10.37,2013-05-15 20:48:00,
2013-05-15 16:53:00,63.8,53.8,29.31,ENE,67,8.0,8.0,70,0.00,CLR,,0.02,WeatherDisplay:10.37,2013-05-15 20:53:00,
2013-05-15 16:58:00,64.0,53.2,29.31,ENE,73,9.2,9.2,68,0.00,CLR,,0.02,WeatherDisplay:10.37,2013-05-15 20:58:00,
2013-05-15 17:03:00,63.6,52.8,29.31,ENE,62,10.4,10.4,68,0.00,CLR,,0.02,WeatherDisplay:10.37,2013-05-15 21:03:00,
2013-05-15 17:08:00,63.1,53.2,29.32,NE,45,6.0,6.0,70,0.00,CLR,,0.02,WeatherDisplay:10.37,2013-05-15 21:08:00,
2013-05-15 17:13:00,63.0,53.1,29.32,NE,34,5.0,5.0,70,0.00,CLR,,0.02,WeatherDisplay:10.37,2013-05-15 21:13:00,
2013-05-15 17:18:00,62.8,53.3,29.32,NE,37,4.0,4.0,71,0.00,CLR,,0.02,WeatherDisplay:10.37,2013-05-15 21:18:00,
2013-05-15 17:23:00,62.9,53.0,29.33,North,9,9.2,9.2,70,0.00,CLR,,0.02,WeatherDisplay:10.37,2013-05-15 21:23:00,
2013-05-15 17:28:00,62.9,53.0,29.33,ENE,63,4.0,4.0,70,0.00,CLR,,0.02,WeatherDisplay:10.37,2013-05-15 21:28:00,
2013-05-15 17:33:00,63.5,53.9,29.32,NE,54,4.6,4.6,71,0.00,CLR,,0.02,WeatherDisplay:10.37,2013-05-15 21:33:00,
2013-05-15 17:38:00,63.3,53.0,29.32,NE,55,5.8,5.8,69,0.00,CLR,,0.02,WeatherDisplay:10.37,2013-05-15 21:38:00,
2013-05-15 17:43:00,63.3,53.3,29.32,NE,56,4.6,4.6,70,0.00,CLR,,0.02,WeatherDisplay:10.37,2013-05-15 21:43:00,
2013-05-15 17:48:00,63.2,53.3,29.32,NE,48,4.0,4.0,70,0.00,CLR,,0.02,WeatherDisplay:10.37,2013-05-15 21:48:00,
2013-05-15 17:53:00,63.2,53.3,29.32,ENE,75,5.8,5.8,70,0.00,CLR,,0.02,WeatherDisplay:10.37,2013-05-15 21:53:00,
2013-05-15 17:58:00,63.4,53.4,29.33,ENE,63,3.5,3.5,70,0.00,CLR,,0.02,WeatherDisplay:10.37,2013-05-15 21:58:00,
2013-05-15 18:03:00,63.8,53.4,29.33,ENE,63,3.0,3.0,69,0.00,CLR,,0.02,WeatherDisplay:10.37,2013-05-15 22:03:00,
2013-05-15 18:08:00,64.6,53.8,29.34,ENE,76,3.0,3.0,68,0.00,CLR,,0.02,WeatherDisplay:10.37,2013-05-15 22:08:00,
2013-05-15 18:13:00,64.9,54.1,29.35,WNW,294,3.5,3.5,68,0.00,CLR,,0.02,WeatherDisplay:10.37,2013-05-15 22:13:00,
2013-05-15 18:18:00,64.7,53.9,29.35,North,10,4.6,4.6,68,0.00,CLR,,0.02,WeatherDisplay:10.37,2013-05-15 22:18:00,
2013-05-15 18:23:00,64.8,54.0,29.35,North,10,3.5,3.5,68,0.00,CLR,,0.02,WeatherDisplay:10.37,2013-05-15 22:23:00,
2013-05-15 18:28:00,64.7,54.3,29.35,North,10,0.0,0.0,69,0.00,CLR,,0.02,WeatherDisplay:10.37,2013-05-15 22:28:00,
2013-05-15 18:33:00,64.8,54.4,29.36,North,10,0.0,0.0,69,0.00,CLR,,0.02,WeatherDisplay:10.37,2013-05-15 22:33:00,
2013-05-15 18:39:00,64.9,54.5,29.36,North,10,0.0,0.0,69,0.00,CLR,,0.02,WeatherDisplay:10.37,2013-05-15 22:39:00,
2013-05-15 18:44:00,64.8,55.2,29.36,East,80,2.3,2.3,71,0.00,CLR,,0.02,WeatherDisplay:10.37,2013-05-15 22:44:00,
2013-05-15 18:49:00,64.8,54.8,29.36,East,93,3.5,3.5,70,0.00,CLR,,0.02,WeatherDisplay:10.37,2013-05-15 22:49:00,
2013-05-15 18:54:00,64.6,55.0,29.36,East,93,2.3,2.3,71,0.00,CLR,,0.02,WeatherDisplay:10.37,2013-05-15 22:54:00,
2013-05-15 18:59:00,64.5,54.1,29.36,South,189,7.0,7.0,69,0.00,CLR,,0.02,WeatherDisplay:10.37,2013-05-15 22:59:00,
2013-05-15 19:04:00,65.5,54.7,29.37,SSE,168,4.0,4.0,68,0.00,CLR,,0.02,WeatherDisplay:10.37,2013-05-15 23:04:00,
2013-05-15 19:09:00,65.9,54.6,29.36,South,175,4.0,4.0,67,0.00,CLR,,0.02,WeatherDisplay:10.37,2013-05-15 23:09:00,
2013-05-15 19:14:00,66.0,54.7,29.37,SSW,196,4.6,4.6,67,0.00,CLR,,0.02,WeatherDisplay:10.37,2013-05-15 23:14:00,
2013-05-15 19:19:00,66.3,54.2,29.37,SW,233,12.0,12.0,65,0.00,CLR,,0.02,WeatherDisplay:10.37,2013-05-15 23:19:00,
2013-05-15 19:24:00,66.9,53.9,29.37,West,276,8.0,8.0,63,0.00,CLR,,0.02,WeatherDisplay:10.37,2013-05-15 23:24:00,
2013-05-15 19:29:00,67.2,52.8,29.38,WSW,256,9.2,9.2,60,0.00,CLR,,0.02,WeatherDisplay:10.37,2013-05-15 23:29:00,
2013-05-15 19:34:00,67.2,52.8,29.38,WSW,243,4.6,4.6,60,0.00,CLR,,0.02,WeatherDisplay:10.37,2013-05-15 23:34:00,
2013-05-15 19:39:00,67.3,52.0,29.38,West,274,9.2,9.2,58,0.00,CLR,,0.02,WeatherDisplay:10.37,2013-05-15 23:39:00,
2013-05-15 19:44:00,67.4,50.7,29.39,West,267,17.0,17.0,55,0.00,CLR,,0.02,WeatherDisplay:10.37,2013-05-15 23:44:00,
2013-05-15 19:50:00,67.5,50.3,29.39,West,259,18.4,18.4,54,0.00,CLR,,0.02,WeatherDisplay:10.37,2013-05-15 23:50:00,
2013-05-15 19:55:00,67.6,50.4,29.39,WNW,291,12.7,12.7,54,0.00,CLR,,0.02,WeatherDisplay:10.37,2013-05-15 23:55:00,
2013-05-15 20:00:00,67.3,50.1,29.39,West,260,12.7,12.7,54,0.00,CLR,,0.02,WeatherDisplay:10.37,2013-05-16 00:00:00,
2013-05-15 20:05:00,66.9,49.2,29.40,West,269,26.0,26.0,53,0.00,CLR,,0.02,WeatherDisplay:10.37,2013-05-16 00:05:00,
2013-05-15 20:10:00,66.9,49.7,29.39,West,280,11.5,11.5,54,0.00,CLR,,0.02,WeatherDisplay:10.37,2013-05-16 00:10:00,
2013-05-15 20:15:00,66.7,49.5,29.40,WSW,250,24.0,24.0,54,0.00,CLR,,0.02,WeatherDisplay:10.37,2013-05-16 00:15:00,
2013-05-15 20:20:00,66.9,49.2,29.40,NW,306,20.0,20.0,53,0.00,CLR,,0.02,WeatherDisplay:10.37,2013-05-16 00:20:00,
2013-05-15 20:25:00,67.0,49.3,29.40,WNW,286,24.2,24.2,53,0.00,CLR,,0.02,WeatherDisplay:10.37,2013-05-16 00:25:00,
2013-05-15 20:30:00,66.8,49.6,29.40,WSW,243,11.5,11.5,54,0.00,CLR,,0.02,WeatherDisplay:10.37,2013-05-16 00:30:00,
2013-05-15 20:35:00,66.5,49.3,29.41,West,259,17.3,17.3,54,0.00,CLR,,0.02,WeatherDisplay:10.37,2013-05-16 00:35:00,
2013-05-15 20:40:00,66.3,49.2,29.41,West,261,13.8,13.8,54,0.00,CLR,,0.02,WeatherDisplay:10.37,2013-05-16 00:40:00,
2013-05-15 20:45:00,66.1,49.0,29.41,WSW,257,23.0,23.0,54,0.00,CLR,,0.02,WeatherDisplay:10.37,2013-05-16 00:45:00,
2013-05-15 20:50:00,66.1,49.0,29.41,SW,232,17.0,17.0,54,0.00,CLR,,0.02,WeatherDisplay:10.37,2013-05-16 00:50:00,
2013-05-15 20:55:00,66.0,48.9,29.42,WSW,251,22.0,22.0,54,0.00,CLR,,0.02,WeatherDisplay:10.37,2013-05-16 00:55:00,
2013-05-15 21:00:00,65.9,48.8,29.42,SW,229,18.0,18.0,54,0.00,CLR,,0.02,WeatherDisplay:10.37,2013-05-16 01:00:00,
2013-05-15 21:05:00,65.7,48.6,29.42,WSW,258,18.0,18.0,54,0.00,CLR,,0.02,WeatherDisplay:10.37,2013-05-16 01:05:00,
2013-05-15 21:10:00,65.4,48.3,29.42,West,267,19.0,19.0,54,0.00,CLR,,0.02,WeatherDisplay:10.37,2013-05-16 01:10:00,
2013-05-15 21:15:00,65.2,48.1,29.43,WSW,257,15.0,15.0,54,0.00,CLR,,0.02,WeatherDisplay:10.37,2013-05-16 01:15:00,
2013-05-15 21:20:00,64.9,48.3,29.43,WSW,250,15.0,15.0,55,0.00,CLR,,0.02,WeatherDisplay:10.37,2013-05-16 01:20:00,
2013-05-15 21:25:00,64.6,48.1,29.43,WSW,252,16.1,16.1,55,0.00,CLR,,0.02,WeatherDisplay:10.37,2013-05-16 01:25:00,
2013-05-15 21:30:00,64.4,47.9,29.43,SW,231,17.0,17.0,55,0.00,CLR,,0.02,WeatherDisplay:10.37,2013-05-16 01:30:00,
2013-05-15 21:35:00,64.3,47.8,29.44,SW,236,20.0,20.0,55,0.00,CLR,,0.02,WeatherDisplay:10.37,2013-05-16 01:35:00,
2013-05-15 21:41:00,64.0,47.5,29.44,WSW,249,17.0,17.0,55,0.00,CLR,,0.02,WeatherDisplay:10.37,2013-05-16 01:41:00,
2013-05-15 21:46:00,63.7,47.2,29.45,WSW,249,15.0,15.0,55,0.00,CLR,,0.02,WeatherDisplay:10.37,2013-05-16 01:46:00,
2013-05-15 21:51:00,63.3,46.9,29.45,West,265,16.0,16.0,55,0.00,CLR,,0.02,WeatherDisplay:10.37,2013-05-16 01:51:00,
2013-05-15 21:56:00,63.1,46.7,29.45,WSW,248,16.0,16.0,55,0.00,CLR,,0.02,WeatherDisplay:10.37,2013-05-16 01:56:00,
2013-05-15 22:01:00,62.8,46.4,29.46,WSW,254,15.0,15.0,55,0.00,CLR,,0.02,WeatherDisplay:10.37,2013-05-16 02:01:00,
2013-05-15 22:06:00,62.5,46.1,29.46,WSW,255,12.0,12.0,55,0.00,CLR,,0.02,WeatherDisplay:10.37,2013-05-16 02:06:00,
2013-05-15 22:12:00,62.2,45.8,29.46,West,268,12.7,12.7,55,0.00,CLR,,0.02,WeatherDisplay:10.37,2013-05-16 02:12:00,
2013-05-15 22:17:00,61.9,45.5,29.46,West,259,15.0,15.0,55,0.00,CLR,,0.02,WeatherDisplay:10.37,2013-05-16 02:17:00,
2013-05-15 22:22:00,61.6,45.3,29.47,WNW,284,13.0,13.0,55,0.00,CLR,,0.02,WeatherDisplay:10.37,2013-05-16 02:22:00,
2013-05-15 22:28:00,61.2,44.9,29.47,WSW,248,13.8,13.8,55,0.00,CLR,,0.02,WeatherDisplay:10.37,2013-05-16 02:28:00,
2013-05-15 22:33:00,60.9,44.6,29.47,West,259,13.0,13.0,55,0.00,CLR,,0.02,WeatherDisplay:10.37,2013-05-16 02:33:00,
2013-05-15 22:38:00,60.6,43.9,29.47,West,275,11.5,11.5,54,0.00,CLR,,0.02,WeatherDisplay:10.37,2013-05-16 02:38:00,
2013-05-15 22:43:00,60.2,43.5,29.47,WNW,286,11.5,11.5,54,0.00,CLR,,0.02,WeatherDisplay:10.37,2013-05-16 02:43:00,
2013-05-15 22:48:00,59.9,43.2,29.47,West,262,16.0,16.0,54,0.00,CLR,,0.02,WeatherDisplay:10.37,2013-05-16 02:48:00,
2013-05-15 22:53:00,59.9,42.2,29.47,West,271,12.7,12.7,52,0.00,CLR,,0.02,WeatherDisplay:10.37,2013-05-16 02:53:00,
2013-05-15 22:59:00,59.8,42.1,29.47,West,269,10.4,10.4,52,0.00,CLR,,0.02,WeatherDisplay:10.37,2013-05-16 02:59:00,
2013-05-15 23:04:00,59.7,42.0,29.47,WSW,253,10.4,10.4,52,0.00,CLR,,0.02,WeatherDisplay:10.37,2013-05-16 03:04:00,
2013-05-15 23:09:00,59.4,41.8,29.47,SW,234,8.1,8.1,52,0.00,CLR,,0.02,WeatherDisplay:10.37,2013-05-16 03:09:00,
2013-05-15 23:14:00,59.1,42.0,29.47,SW,227,8.1,8.1,53,0.00,CLR,,0.02,WeatherDisplay:10.37,2013-05-16 03:14:00,
2013-05-15 23:19:00,58.5,41.9,29.47,SW,223,8.1,8.1,54,0.00,CLR,,0.02,WeatherDisplay:10.37,2013-05-16 03:19:00,
2013-05-15 23:25:00,57.8,42.2,29.47,SW,221,7.0,7.0,56,0.00,CLR,,0.02,WeatherDisplay:10.37,2013-05-16 03:25:00,
2013-05-15 23:30:00,57.2,42.5,29.47,SW,219,5.8,5.8,58,0.00,CLR,,0.02,WeatherDisplay:10.37,2013-05-16 03:30:00,
2013-05-15 23:35:00,56.1,42.0,29.47,SW,220,4.6,4.6,59,0.00,CLR,,0.02,WeatherDisplay:10.37,2013-05-16 03:35:00,
2013-05-15 23:40:00,55.4,42.2,29.47,SW,219,5.8,5.8,61,0.00,CLR,,0.02,WeatherDisplay:10.37,2013-05-16 03:40:00,
2013-05-15 23:45:00,55.1,42.3,29.47,SW,221,6.0,6.0,62,0.00,CLR,,0.02,WeatherDisplay:10.37,2013-05-16 03:45:00,
2013-05-15 23:50:00,54.3,42.0,29.47,SSW,211,5.0,5.0,63,0.00,CLR,,0.02,WeatherDisplay:10.37,2013-05-16 03:50:00,
2013-05-15 23:56:00,53.9,42.0,29.47,SSW,209,6.0,6.0,64,0.00,CLR,,0.02,WeatherDisplay:10.37,2013-05-16 03:56:00,